Newhall, CA (91321)

5:03 AM PDT on June 03, 2015 (GMT -0700)
KCANEWHA2 | | Change Station
CLOSE
Current Station
Personal Weather Station
Location: Newhall, CA
Elevation: 1373 ft
Nearby Weather Stations

Elev 1373 ft 34.37 °N, 118.52 °W | Updated 10 seconds ago

Partly Cloudy
Partly Cloudy
57.9 °F
Feels Like 57.9 °F
N
4.0
Wind Variable Wind from SE
Gusts 12.0 mph

Today
High -- | Low -- °F
--% Chance of Precip.
Yesterday
High -- | Low -- °F
Precip. -- in
5:42 AM 8:02 PM
Full, 99% visible
Pressure 29.90 in
Visibility 9.0 miles
Clouds Overcast 1000 ft
Dew Point 55 °F
Humidity 91%
Rainfall 0.00 in
Snow Depth Not available.
UV 0 out of 12
Pollen 4.60 out of 12
Air Quality Not available.
Flu Activity Sporadic
METAR KVNY 031151Z 10005KT 9SM OVC010 16/13 A2992 RMK AO2 SLP123 T01610133 10178 20156 58002

More Conditions Fewer Conditions

Pressure 29.90 in
Visibility 9.0 miles
Clouds Overcast 1000 ft
Dew Point 55 °F
Humidity 91%
Rainfall 0.00 in
Snow Depth Not available.
UV 0 out of 12
Pollen 4.60 out of 12
Air Quality Not available.
Flu Activity Sporadic
METAR KVNY 031151Z 10005KT 9SM OVC010 16/13 A2992 RMK AO2 SLP123 T01610133 10178 20156 58002

More Conditions Fewer Conditions

10-Day Weather Forecast

×

Almanac

Astronomy

Jun. 03, 2015 Rise Set
Actual Time
Civil Twilight
Nautical Twilight
Astronomical Twilight
Moon
Length of Visible Light
Length of Day
Tomorrow will be .
, % of the Moon is Illuminated

Today's Extremes

State Highs State Lows

Community

WunderPhotos

Upload Photos

1,826,205 photos uploaded!

WunderBlogs® & News

Nearby

Air Quality

  Air Quality AQ Index Pollutant
Not available.

Snow Depth

Station Depth Elevation

Earthquake Activity

City Distance Mag. Time & Date
Minimum magnitude displayed is 2.5.

Coastal Water Temperatures

Place Temperature

Stations

Nearby Weather Stations

Station Location Temp. Windchill Dew Point Humidity Wind Precip. Elev Updated Type